sensor_id;sensor_type;location;lat;lon;timestamp;P1;durP1;ratioP1;P2;durP2;ratioP2
54561;SDS011;40456;53.358;-1.486;2023-03-02T00:02:09;2.47;;;0.93;;
54561;SDS011;40456;53.358;-1.486;2023-03-02T00:04:38;3.13;;;0.93;;
54561;SDS011;40456;53.358;-1.486;2023-03-02T00:07:09;3.08;;;0.93;;
54561;SDS011;40456;53.358;-1.486;2023-03-02T00:09:37;3.03;;;0.75;;
54561;SDS011;40456;53.358;-1.486;2023-03-02T00:12:02;3.58;;;1.00;;
54561;SDS011;40456;53.358;-1.486;2023-03-02T00:14:29;3.92;;;1.00;;
54561;SDS011;40456;53.358;-1.486;2023-03-02T00:16:55;3.40;;;1.23;;
54561;SDS011;40456;53.358;-1.486;2023-03-02T00:19:20;3.97;;;1.00;;
54561;SDS011;40456;53.358;-1.486;2023-03-02T00:21:46;2.60;;;1.00;;
54561;SDS011;40456;53.358;-1.486;2023-03-02T00:24:11;6.53;;;1.40;;
54561;SDS011;40456;53.358;-1.486;2023-03-02T00:26:38;2.40;;;1.00;;
54561;SDS011;40456;53.358;-1.486;2023-03-02T00:29:04;3.22;;;0.60;;
54561;SDS011;40456;53.358;-1.486;2023-03-02T00:31:29;1.33;;;0.68;;
54561;SDS011;40456;53.358;-1.486;2023-03-02T00:33:55;1.60;;;0.70;;
54561;SDS011;40456;53.358;-1.486;2023-03-02T00:36:21;1.38;;;0.40;;
54561;SDS011;40456;53.358;-1.486;2023-03-02T00:38:47;1.88;;;0.85;;
54561;SDS011;40456;53.358;-1.486;2023-03-02T00:41:13;2.65;;;0.70;;
54561;SDS011;40456;53.358;-1.486;2023-03-02T00:43:39;1.67;;;0.85;;
54561;SDS011;40456;53.358;-1.486;2023-03-02T00:46:11;1.67;;;0.60;;
54561;SDS011;40456;53.358;-1.486;2023-03-02T00:48:37;5.60;;;1.30;;
54561;SDS011;40456;53.358;-1.486;2023-03-02T00:51:03;3.97;;;0.90;;
54561;SDS011;40456;53.358;-1.486;2023-03-02T00:53:29;3.83;;;1.20;;
54561;SDS011;40456;53.358;-1.486;2023-03-02T00:55:54;3.75;;;0.88;;
54561;SDS011;40456;53.358;-1.486;2023-03-02T00:58:20;1.70;;;0.80;;
54561;SDS011;40456;53.358;-1.486;2023-03-02T01:00:46;2.13;;;0.98;;
54561;SDS011;40456;53.358;-1.486;2023-03-02T01:03:11;3.22;;;1.10;;
54561;SDS011;40456;53.358;-1.486;2023-03-02T01:05:37;1.38;;;0.82;;
54561;SDS011;40456;53.358;-1.486;2023-03-02T01:08:02;4.95;;;0.80;;
54561;SDS011;40456;53.358;-1.486;2023-03-02T01:10:30;2.20;;;0.80;;
54561;SDS011;40456;53.358;-1.486;2023-03-02T01:12:55;1.65;;;0.65;;
54561;SDS011;40456;53.358;-1.486;2023-03-02T01:15:21;2.70;;;0.63;;
54561;SDS011;40456;53.358;-1.486;2023-03-02T01:17:46;4.80;;;0.85;;
54561;SDS011;40456;53.358;-1.486;2023-03-02T01:20:12;1.42;;;0.70;;
54561;SDS011;40456;53.358;-1.486;2023-03-02T01:22:38;4.25;;;0.85;;
54561;SDS011;40456;53.358;-1.486;2023-03-02T01:25:04;3.95;;;0.77;;
54561;SDS011;40456;53.358;-1.486;2023-03-02T01:27:29;3.55;;;0.82;;
54561;SDS011;40456;53.358;-1.486;2023-03-02T01:29:54;3.70;;;0.85;;
54561;SDS011;40456;53.358;-1.486;2023-03-02T01:32:20;1.45;;;0.63;;
54561;SDS011;40456;53.358;-1.486;2023-03-02T01:34:45;2.58;;;0.52;;
54561;SDS011;40456;53.358;-1.486;2023-03-02T01:37:11;4.93;;;0.77;;
54561;SDS011;40456;53.358;-1.486;2023-03-02T01:39:36;0.98;;;0.63;;
54561;SDS011;40456;53.358;-1.486;2023-03-02T01:42:02;2.60;;;0.93;;
54561;SDS011;40456;53.358;-1.486;2023-03-02T01:47:27;2.80;;;1.02;;
54561;SDS011;40456;53.358;-1.486;2023-03-02T01:52:47;4.43;;;1.10;;
54561;SDS011;40456;53.358;-1.486;2023-03-02T01:55:14;1.65;;;0.60;;
54561;SDS011;40456;53.358;-1.486;2023-03-02T01:57:43;3.60;;;1.00;;
54561;SDS011;40456;53.358;-1.486;2023-03-02T02:00:12;1.67;;;0.73;;
54561;SDS011;40456;53.358;-1.486;2023-03-02T02:02:40;3.17;;;0.80;;
54561;SDS011;40456;53.358;-1.486;2023-03-02T02:05:10;2.22;;;0.85;;
54561;SDS011;40456;53.358;-1.486;2023-03-02T02:07:38;4.65;;;0.73;;
54561;SDS011;40456;53.358;-1.486;2023-03-02T02:10:04;2.53;;;0.98;;
54561;SDS011;40456;53.358;-1.486;2023-03-02T02:12:30;2.75;;;0.88;;
54561;SDS011;40456;53.358;-1.486;2023-03-02T02:14:56;1.52;;;0.60;;
54561;SDS011;40456;53.358;-1.486;2023-03-02T02:17:24;2.53;;;0.60;;
54561;SDS011;40456;53.358;-1.486;2023-03-02T02:20:01;2.53;;;0.65;;
54561;SDS011;40456;53.358;-1.486;2023-03-02T02:31:24;2.95;;;0.80;;
54561;SDS011;40456;53.358;-1.486;2023-03-02T02:33:55;3.20;;;0.90;;
54561;SDS011;40456;53.358;-1.486;2023-03-02T02:36:31;3.10;;;1.02;;
54561;SDS011;40456;53.358;-1.486;2023-03-02T02:38:59;8.32;;;1.60;;
54561;SDS011;40456;53.358;-1.486;2023-03-02T02:41:29;2.78;;;0.90;;
54561;SDS011;40456;53.358;-1.486;2023-03-02T02:43:58;3.33;;;0.70;;
54561;SDS011;40456;53.358;-1.486;2023-03-02T02:46:24;2.67;;;0.68;;
54561;SDS011;40456;53.358;-1.486;2023-03-02T02:48:50;2.67;;;0.82;;
54561;SDS011;40456;53.358;-1.486;2023-03-02T02:51:20;0.82;;;0.60;;
54561;SDS011;40456;53.358;-1.486;2023-03-02T02:53:59;2.80;;;1.00;;
54561;SDS011;40456;53.358;-1.486;2023-03-02T02:56:27;4.30;;;0.65;;
54561;SDS011;40456;53.358;-1.486;2023-03-02T02:59:03;1.73;;;0.85;;
54561;SDS011;40456;53.358;-1.486;2023-03-02T03:01:31;1.50;;;0.65;;
54561;SDS011;40456;53.358;-1.486;2023-03-02T03:04:00;1.30;;;0.75;;
54561;SDS011;40456;53.358;-1.486;2023-03-02T03:06:32;1.90;;;0.70;;
54561;SDS011;40456;53.358;-1.486;2023-03-02T03:09:06;2.05;;;0.70;;
54561;SDS011;40456;53.358;-1.486;2023-03-02T03:11:34;2.92;;;0.75;;
54561;SDS011;40456;53.358;-1.486;2023-03-02T03:14:08;1.92;;;0.65;;
54561;SDS011;40456;53.358;-1.486;2023-03-02T03:16:36;1.75;;;0.80;;
54561;SDS011;40456;53.358;-1.486;2023-03-02T03:19:14;3.53;;;0.70;;
54561;SDS011;40456;53.358;-1.486;2023-03-02T03:21:42;2.03;;;0.75;;
54561;SDS011;40456;53.358;-1.486;2023-03-02T03:24:09;3.17;;;0.75;;
54561;SDS011;40456;53.358;-1.486;2023-03-02T03:26:34;3.05;;;0.60;;
54561;SDS011;40456;53.358;-1.486;2023-03-02T03:29:00;1.58;;;0.60;;
54561;SDS011;40456;53.358;-1.486;2023-03-02T03:31:26;1.40;;;0.65;;
54561;SDS011;40456;53.358;-1.486;2023-03-02T03:33:52;2.78;;;0.70;;
54561;SDS011;40456;53.358;-1.486;2023-03-02T03:36:18;1.48;;;0.65;;
54561;SDS011;40456;53.358;-1.486;2023-03-02T03:38:44;1.67;;;0.43;;
54561;SDS011;40456;53.358;-1.486;2023-03-02T03:41:09;5.40;;;0.75;;
54561;SDS011;40456;53.358;-1.486;2023-03-02T03:43:35;2.90;;;0.52;;
54561;SDS011;40456;53.358;-1.486;2023-03-02T03:46:00;3.70;;;0.70;;
54561;SDS011;40456;53.358;-1.486;2023-03-02T03:48:26;0.95;;;0.60;;
54561;SDS011;40456;53.358;-1.486;2023-03-02T03:50:51;3.08;;;0.63;;
54561;SDS011;40456;53.358;-1.486;2023-03-02T03:53:16;5.53;;;0.98;;
54561;SDS011;40456;53.358;-1.486;2023-03-02T03:55:42;1.60;;;0.82;;
54561;SDS011;40456;53.358;-1.486;2023-03-02T03:58:07;1.98;;;0.60;;
54561;SDS011;40456;53.358;-1.486;2023-03-02T04:00:32;3.70;;;1.00;;
54561;SDS011;40456;53.358;-1.486;2023-03-02T04:02:58;2.08;;;0.70;;
54561;SDS011;40456;53.358;-1.486;2023-03-02T04:05:23;1.90;;;0.47;;
54561;SDS011;40456;53.358;-1.486;2023-03-02T04:07:49;3.60;;;1.15;;
54561;SDS011;40456;53.358;-1.486;2023-03-02T04:10:14;2.70;;;0.70;;
54561;SDS011;40456;53.358;-1.486;2023-03-02T04:12:40;1.17;;;0.50;;
54561;SDS011;40456;53.358;-1.486;2023-03-02T04:15:07;3.28;;;0.98;;
54561;SDS011;40456;53.358;-1.486;2023-03-02T04:17:33;3.03;;;0.95;;
54561;SDS011;40456;53.358;-1.486;2023-03-02T04:19:58;6.07;;;0.98;;
54561;SDS011;40456;53.358;-1.486;2023-03-02T04:22:24;2.00;;;0.90;;
54561;SDS011;40456;53.358;-1.486;2023-03-02T04:24:50;2.10;;;0.98;;
54561;SDS011;40456;53.358;-1.486;2023-03-02T04:27:15;1.42;;;0.60;;
54561;SDS011;40456;53.358;-1.486;2023-03-02T04:29:41;2.67;;;0.65;;
54561;SDS011;40456;53.358;-1.486;2023-03-02T04:32:08;3.70;;;0.85;;
54561;SDS011;40456;53.358;-1.486;2023-03-02T04:34:33;2.60;;;0.80;;
54561;SDS011;40456;53.358;-1.486;2023-03-02T04:36:59;2.03;;;0.50;;
54561;SDS011;40456;53.358;-1.486;2023-03-02T04:39:25;1.92;;;0.70;;
54561;SDS011;40456;53.358;-1.486;2023-03-02T04:41:50;2.13;;;0.85;;
54561;SDS011;40456;53.358;-1.486;2023-03-02T04:44:16;1.75;;;0.77;;
54561;SDS011;40456;53.358;-1.486;2023-03-02T04:46:42;1.88;;;0.80;;
54561;SDS011;40456;53.358;-1.486;2023-03-02T04:49:08;2.25;;;0.98;;
54561;SDS011;40456;53.358;-1.486;2023-03-02T04:51:34;1.33;;;0.77;;
54561;SDS011;40456;53.358;-1.486;2023-03-02T04:54:04;2.03;;;0.90;;
54561;SDS011;40456;53.358;-1.486;2023-03-02T04:56:31;3.53;;;1.08;;
54561;SDS011;40456;53.358;-1.486;2023-03-02T04:58:57;3.95;;;1.05;;
54561;SDS011;40456;53.358;-1.486;2023-03-02T05:01:23;1.23;;;0.68;;
54561;SDS011;40456;53.358;-1.486;2023-03-02T05:03:49;3.70;;;0.80;;
54561;SDS011;40456;53.358;-1.486;2023-03-02T05:06:15;3.67;;;0.82;;
54561;SDS011;40456;53.358;-1.486;2023-03-02T05:08:41;4.20;;;1.45;;
54561;SDS011;40456;53.358;-1.486;2023-03-02T05:11:07;1.40;;;0.75;;
54561;SDS011;40456;53.358;-1.486;2023-03-02T05:13:34;2.72;;;0.75;;
54561;SDS011;40456;53.358;-1.486;2023-03-02T05:16:00;2.50;;;0.52;;
54561;SDS011;40456;53.358;-1.486;2023-03-02T05:18:25;4.95;;;0.90;;
54561;SDS011;40456;53.358;-1.486;2023-03-02T05:20:54;1.50;;;0.55;;
54561;SDS011;40456;53.358;-1.486;2023-03-02T05:23:19;5.15;;;1.00;;
54561;SDS011;40456;53.358;-1.486;2023-03-02T05:25:49;1.02;;;0.70;;
54561;SDS011;40456;53.358;-1.486;2023-03-02T05:28:15;2.08;;;0.98;;
54561;SDS011;40456;53.358;-1.486;2023-03-02T05:30:40;0.77;;;0.50;;
54561;SDS011;40456;53.358;-1.486;2023-03-02T05:33:06;1.25;;;0.95;;
54561;SDS011;40456;53.358;-1.486;2023-03-02T05:35:32;2.67;;;1.13;;
54561;SDS011;40456;53.358;-1.486;2023-03-02T05:37:57;3.40;;;1.10;;
54561;SDS011;40456;53.358;-1.486;2023-03-02T05:40:23;1.20;;;0.70;;
54561;SDS011;40456;53.358;-1.486;2023-03-02T05:42:48;3.92;;;1.00;;
54561;SDS011;40456;53.358;-1.486;2023-03-02T05:45:22;5.00;;;1.02;;
54561;SDS011;40456;53.358;-1.486;2023-03-02T05:47:48;4.88;;;1.23;;
54561;SDS011;40456;53.358;-1.486;2023-03-02T05:50:14;1.70;;;1.00;;
54561;SDS011;40456;53.358;-1.486;2023-03-02T05:52:39;2.65;;;1.00;;
54561;SDS011;40456;53.358;-1.486;2023-03-02T05:55:05;3.78;;;1.02;;
54561;SDS011;40456;53.358;-1.486;2023-03-02T05:57:31;2.08;;;1.00;;
54561;SDS011;40456;53.358;-1.486;2023-03-02T05:59:56;1.02;;;0.90;;
54561;SDS011;40456;53.358;-1.486;2023-03-02T06:02:22;3.03;;;0.98;;
54561;SDS011;40456;53.358;-1.486;2023-03-02T06:04:47;1.40;;;0.80;;
54561;SDS011;40456;53.358;-1.486;2023-03-02T06:07:12;2.65;;;1.20;;
54561;SDS011;40456;53.358;-1.486;2023-03-02T06:09:38;2.05;;;1.02;;
54561;SDS011;40456;53.358;-1.486;2023-03-02T06:12:04;2.13;;;1.23;;
54561;SDS011;40456;53.358;-1.486;2023-03-02T06:14:30;3.15;;;1.13;;
54561;SDS011;40456;53.358;-1.486;2023-03-02T06:16:56;1.77;;;0.95;;
54561;SDS011;40456;53.358;-1.486;2023-03-02T06:19:21;3.30;;;1.35;;
54561;SDS011;40456;53.358;-1.486;2023-03-02T06:21:46;2.65;;;0.77;;
54561;SDS011;40456;53.358;-1.486;2023-03-02T06:24:12;1.60;;;0.93;;
54561;SDS011;40456;53.358;-1.486;2023-03-02T06:26:37;2.55;;;1.05;;
54561;SDS011;40456;53.358;-1.486;2023-03-02T06:29:02;1.90;;;1.35;;
54561;SDS011;40456;53.358;-1.486;2023-03-02T06:31:29;2.60;;;1.23;;
54561;SDS011;40456;53.358;-1.486;2023-03-02T06:33:55;3.67;;;1.23;;
54561;SDS011;40456;53.358;-1.486;2023-03-02T06:36:20;1.35;;;0.85;;
54561;SDS011;40456;53.358;-1.486;2023-03-02T06:38:45;3.17;;;0.98;;
54561;SDS011;40456;53.358;-1.486;2023-03-02T06:41:11;2.85;;;1.02;;
54561;SDS011;40456;53.358;-1.486;2023-03-02T06:43:36;2.00;;;1.00;;
54561;SDS011;40456;53.358;-1.486;2023-03-02T06:46:02;2.22;;;1.20;;
54561;SDS011;40456;53.358;-1.486;2023-03-02T06:48:28;1.75;;;1.20;;
54561;SDS011;40456;53.358;-1.486;2023-03-02T06:50:53;3.22;;;1.40;;
54561;SDS011;40456;53.358;-1.486;2023-03-02T06:53:18;2.38;;;0.95;;
54561;SDS011;40456;53.358;-1.486;2023-03-02T06:55:46;3.03;;;0.93;;
54561;SDS011;40456;53.358;-1.486;2023-03-02T06:58:12;2.47;;;1.25;;
54561;SDS011;40456;53.358;-1.486;2023-03-02T07:00:38;1.42;;;1.05;;
54561;SDS011;40456;53.358;-1.486;2023-03-02T07:03:03;2.00;;;1.05;;
54561;SDS011;40456;53.358;-1.486;2023-03-02T07:05:29;2.40;;;1.15;;
54561;SDS011;40456;53.358;-1.486;2023-03-02T07:07:56;2.10;;;1.10;;
54561;SDS011;40456;53.358;-1.486;2023-03-02T07:10:22;1.85;;;1.00;;
54561;SDS011;40456;53.358;-1.486;2023-03-02T07:12:48;4.30;;;1.00;;
54561;SDS011;40456;53.358;-1.486;2023-03-02T07:15:13;1.92;;;1.10;;
54561;SDS011;40456;53.358;-1.486;2023-03-02T07:17:39;4.22;;;1.10;;
54561;SDS011;40456;53.358;-1.486;2023-03-02T07:20:06;1.50;;;0.73;;
54561;SDS011;40456;53.358;-1.486;2023-03-02T07:22:32;3.45;;;0.80;;
54561;SDS011;40456;53.358;-1.486;2023-03-02T07:24:58;2.30;;;1.00;;
54561;SDS011;40456;53.358;-1.486;2023-03-02T07:27:23;1.27;;;0.80;;
54561;SDS011;40456;53.358;-1.486;2023-03-02T07:29:49;2.20;;;1.10;;
54561;SDS011;40456;53.358;-1.486;2023-03-02T07:32:14;2.85;;;1.00;;
54561;SDS011;40456;53.358;-1.486;2023-03-02T07:34:39;3.22;;;1.08;;
54561;SDS011;40456;53.358;-1.486;2023-03-02T07:37:05;1.15;;;0.70;;
54561;SDS011;40456;53.358;-1.486;2023-03-02T07:39:30;1.30;;;1.02;;
54561;SDS011;40456;53.358;-1.486;2023-03-02T07:41:56;2.97;;;0.90;;
54561;SDS011;40456;53.358;-1.486;2023-03-02T07:44:23;2.45;;;0.73;;
54561;SDS011;40456;53.358;-1.486;2023-03-02T07:46:48;2.55;;;0.75;;
54561;SDS011;40456;53.358;-1.486;2023-03-02T07:49:13;0.70;;;0.70;;
54561;SDS011;40456;53.358;-1.486;2023-03-02T07:51:39;1.08;;;0.68;;
54561;SDS011;40456;53.358;-1.486;2023-03-02T07:54:04;1.27;;;0.63;;
54561;SDS011;40456;53.358;-1.486;2023-03-02T07:56:30;1.60;;;0.70;;
54561;SDS011;40456;53.358;-1.486;2023-03-02T07:58:56;2.35;;;0.90;;
54561;SDS011;40456;53.358;-1.486;2023-03-02T08:01:21;2.03;;;0.70;;
54561;SDS011;40456;53.358;-1.486;2023-03-02T08:03:47;1.85;;;0.63;;
54561;SDS011;40456;53.358;-1.486;2023-03-02T08:06:12;0.80;;;0.55;;
54561;SDS011;40456;53.358;-1.486;2023-03-02T08:08:38;1.95;;;0.90;;
54561;SDS011;40456;53.358;-1.486;2023-03-02T08:11:04;0.63;;;0.45;;
54561;SDS011;40456;53.358;-1.486;2023-03-02T08:13:30;1.70;;;0.85;;
54561;SDS011;40456;53.358;-1.486;2023-03-02T08:16:00;0.80;;;0.50;;
54561;SDS011;40456;53.358;-1.486;2023-03-02T08:18:26;0.95;;;0.47;;
54561;SDS011;40456;53.358;-1.486;2023-03-02T08:20:52;1.65;;;0.75;;
54561;SDS011;40456;53.358;-1.486;2023-03-02T08:23:19;1.30;;;0.77;;
54561;SDS011;40456;53.358;-1.486;2023-03-02T08:25:50;2.10;;;0.98;;
54561;SDS011;40456;53.358;-1.486;2023-03-02T08:28:16;1.67;;;0.50;;
54561;SDS011;40456;53.358;-1.486;2023-03-02T08:30:42;3.85;;;0.80;;
54561;SDS011;40456;53.358;-1.486;2023-03-02T08:33:07;0.50;;;0.43;;
54561;SDS011;40456;53.358;-1.486;2023-03-02T08:35:33;1.42;;;0.90;;
54561;SDS011;40456;53.358;-1.486;2023-03-02T08:37:58;0.68;;;0.60;;
54561;SDS011;40456;53.358;-1.486;2023-03-02T08:40:24;2.13;;;0.80;;
54561;SDS011;40456;53.358;-1.486;2023-03-02T08:42:50;3.78;;;1.00;;
54561;SDS011;40456;53.358;-1.486;2023-03-02T08:45:22;1.42;;;0.50;;
54561;SDS011;40456;53.358;-1.486;2023-03-02T08:47:47;1.25;;;0.60;;
54561;SDS011;40456;53.358;-1.486;2023-03-02T08:50:13;1.38;;;0.73;;
54561;SDS011;40456;53.358;-1.486;2023-03-02T08:52:38;1.10;;;0.70;;
54561;SDS011;40456;53.358;-1.486;2023-03-02T08:55:04;0.90;;;0.57;;
54561;SDS011;40456;53.358;-1.486;2023-03-02T08:57:30;1.00;;;0.50;;
54561;SDS011;40456;53.358;-1.486;2023-03-02T08:59:56;0.88;;;0.80;;
54561;SDS011;40456;53.358;-1.486;2023-03-02T09:02:21;0.65;;;0.50;;
54561;SDS011;40456;53.358;-1.486;2023-03-02T09:04:46;3.20;;;0.50;;
54561;SDS011;40456;53.358;-1.486;2023-03-02T09:07:12;0.80;;;0.60;;
54561;SDS011;40456;53.358;-1.486;2023-03-02T09:09:41;2.47;;;0.90;;
54561;SDS011;40456;53.358;-1.486;2023-03-02T09:12:06;0.60;;;0.50;;
54561;SDS011;40456;53.358;-1.486;2023-03-02T09:14:32;1.75;;;0.80;;
54561;SDS011;40456;53.358;-1.486;2023-03-02T09:16:57;2.47;;;0.93;;
54561;SDS011;40456;53.358;-1.486;2023-03-02T09:19:23;0.70;;;0.68;;
54561;SDS011;40456;53.358;-1.486;2023-03-02T09:21:48;1.50;;;0.77;;
54561;SDS011;40456;53.358;-1.486;2023-03-02T09:24:13;1.73;;;1.40;;
54561;SDS011;40456;53.358;-1.486;2023-03-02T09:26:39;1.08;;;0.98;;
54561;SDS011;40456;53.358;-1.486;2023-03-02T09:29:04;1.17;;;1.00;;
54561;SDS011;40456;53.358;-1.486;2023-03-02T09:31:31;1.10;;;1.00;;
54561;SDS011;40456;53.358;-1.486;2023-03-02T09:33:57;1.13;;;1.02;;
54561;SDS011;40456;53.358;-1.486;2023-03-02T09:36:23;2.20;;;1.13;;
54561;SDS011;40456;53.358;-1.486;2023-03-02T09:38:50;1.95;;;1.30;;
54561;SDS011;40456;53.358;-1.486;2023-03-02T09:46:49;1.40;;;1.10;;
54561;SDS011;40456;53.358;-1.486;2023-03-02T09:52:01;1.58;;;0.80;;
54561;SDS011;40456;53.358;-1.486;2023-03-02T09:54:30;1.17;;;0.90;;
54561;SDS011;40456;53.358;-1.486;2023-03-02T09:56:56;1.10;;;0.90;;
54561;SDS011;40456;53.358;-1.486;2023-03-02T09:59:30;1.30;;;1.00;;
54561;SDS011;40456;53.358;-1.486;2023-03-02T10:02:00;0.95;;;0.90;;
54561;SDS011;40456;53.358;-1.486;2023-03-02T10:07:09;0.73;;;0.70;;
54561;SDS011;40456;53.358;-1.486;2023-03-02T10:09:37;1.30;;;0.80;;
54561;SDS011;40456;53.358;-1.486;2023-03-02T10:15:23;0.88;;;0.63;;
54561;SDS011;40456;53.358;-1.486;2023-03-02T10:17:53;0.50;;;0.50;;
54561;SDS011;40456;53.358;-1.486;2023-03-02T10:20:29;1.60;;;0.68;;
54561;SDS011;40456;53.358;-1.486;2023-03-02T10:26:22;0.50;;;0.40;;
54561;SDS011;40456;53.358;-1.486;2023-03-02T10:28:57;0.82;;;0.47;;
54561;SDS011;40456;53.358;-1.486;2023-03-02T10:31:35;0.70;;;0.57;;
54561;SDS011;40456;53.358;-1.486;2023-03-02T10:34:03;0.88;;;0.57;;
54561;SDS011;40456;53.358;-1.486;2023-03-02T10:36:30;1.20;;;0.65;;
54561;SDS011;40456;53.358;-1.486;2023-03-02T10:38:59;0.50;;;0.50;;
54561;SDS011;40456;53.358;-1.486;2023-03-02T10:41:35;0.50;;;0.47;;
54561;SDS011;40456;53.358;-1.486;2023-03-02T10:44:06;1.88;;;0.60;;
54561;SDS011;40456;53.358;-1.486;2023-03-02T10:46:45;1.60;;;0.90;;
54561;SDS011;40456;53.358;-1.486;2023-03-02T10:52:17;0.60;;;0.60;;
54561;SDS011;40456;53.358;-1.486;2023-03-02T10:54:44;0.90;;;0.80;;
54561;SDS011;40456;53.358;-1.486;2023-03-02T10:59:48;1.02;;;0.90;;
54561;SDS011;40456;53.358;-1.486;2023-03-02T11:02:16;1.65;;;1.10;;
54561;SDS011;40456;53.358;-1.486;2023-03-02T11:04:55;2.67;;;1.00;;
54561;SDS011;40456;53.358;-1.486;2023-03-02T11:07:23;2.20;;;1.52;;
54561;SDS011;40456;53.358;-1.486;2023-03-02T11:12:31;1.40;;;1.02;;
54561;SDS011;40456;53.358;-1.486;2023-03-02T11:15:01;1.15;;;1.05;;
54561;SDS011;40456;53.358;-1.486;2023-03-02T11:17:36;2.28;;;1.20;;
54561;SDS011;40456;53.358;-1.486;2023-03-02T11:20:02;3.30;;;0.90;;
54561;SDS011;40456;53.358;-1.486;2023-03-02T11:22:33;1.20;;;1.10;;
54561;SDS011;40456;53.358;-1.486;2023-03-02T11:25:04;0.90;;;0.90;;
54561;SDS011;40456;53.358;-1.486;2023-03-02T11:27:32;1.48;;;0.80;;
54561;SDS011;40456;53.358;-1.486;2023-03-02T11:37:59;2.17;;;1.40;;
54561;SDS011;40456;53.358;-1.486;2023-03-02T11:43:11;3.05;;;1.70;;
54561;SDS011;40456;53.358;-1.486;2023-03-02T11:45:40;2.08;;;1.63;;
54561;SDS011;40456;53.358;-1.486;2023-03-02T11:48:14;2.75;;;1.70;;
54561;SDS011;40456;53.358;-1.486;2023-03-02T11:50:49;2.80;;;1.40;;
54561;SDS011;40456;53.358;-1.486;2023-03-02T11:53:19;1.63;;;1.52;;
54561;SDS011;40456;53.358;-1.486;2023-03-02T11:55:46;2.20;;;1.40;;
54561;SDS011;40456;53.358;-1.486;2023-03-02T11:58:22;1.73;;;1.58;;
54561;SDS011;40456;53.358;-1.486;2023-03-02T12:00:50;1.60;;;1.40;;
54561;SDS011;40456;53.358;-1.486;2023-03-02T12:05:42;1.42;;;1.33;;
54561;SDS011;40456;53.358;-1.486;2023-03-02T12:10:43;2.05;;;1.77;;
54561;SDS011;40456;53.358;-1.486;2023-03-02T12:13:27;1.80;;;1.67;;
54561;SDS011;40456;53.358;-1.486;2023-03-02T12:15:55;1.83;;;1.60;;
54561;SDS011;40456;53.358;-1.486;2023-03-02T12:28:34;2.40;;;1.70;;
54561;SDS011;40456;53.358;-1.486;2023-03-02T12:31:03;2.75;;;1.50;;
54561;SDS011;40456;53.358;-1.486;2023-03-02T12:33:31;2.88;;;1.70;;
54561;SDS011;40456;53.358;-1.486;2023-03-02T12:36:03;2.47;;;1.50;;
54561;SDS011;40456;53.358;-1.486;2023-03-02T12:38:36;3.33;;;1.90;;
54561;SDS011;40456;53.358;-1.486;2023-03-02T12:43:37;1.63;;;1.52;;
54561;SDS011;40456;53.358;-1.486;2023-03-02T12:48:57;1.80;;;1.70;;
54561;SDS011;40456;53.358;-1.486;2023-03-02T12:51:24;1.67;;;1.42;;
54561;SDS011;40456;53.358;-1.486;2023-03-02T12:54:04;2.67;;;2.08;;
54561;SDS011;40456;53.358;-1.486;2023-03-02T12:56:31;2.15;;;1.80;;
54561;SDS011;40456;53.358;-1.486;2023-03-02T12:58:56;2.83;;;2.15;;
54561;SDS011;40456;53.358;-1.486;2023-03-02T13:01:23;2.72;;;2.53;;
54561;SDS011;40456;53.358;-1.486;2023-03-02T13:03:51;4.05;;;2.42;;
54561;SDS011;40456;53.358;-1.486;2023-03-02T13:06:17;2.33;;;2.13;;
54561;SDS011;40456;53.358;-1.486;2023-03-02T13:08:45;2.63;;;2.20;;
54561;SDS011;40456;53.358;-1.486;2023-03-02T13:11:11;2.70;;;2.35;;
54561;SDS011;40456;53.358;-1.486;2023-03-02T13:13:38;3.47;;;3.15;;
54561;SDS011;40456;53.358;-1.486;2023-03-02T13:16:16;4.38;;;2.60;;
54561;SDS011;40456;53.358;-1.486;2023-03-02T13:18:45;3.35;;;2.47;;
54561;SDS011;40456;53.358;-1.486;2023-03-02T13:21:12;2.33;;;2.20;;
54561;SDS011;40456;53.358;-1.486;2023-03-02T13:23:43;2.58;;;2.17;;
54561;SDS011;40456;53.358;-1.486;2023-03-02T13:26:27;2.65;;;2.13;;
54561;SDS011;40456;53.358;-1.486;2023-03-02T13:29:06;3.92;;;2.17;;
54561;SDS011;40456;53.358;-1.486;2023-03-02T13:31:45;2.63;;;2.00;;
54561;SDS011;40456;53.358;-1.486;2023-03-02T13:34:44;2.17;;;1.67;;
54561;SDS011;40456;53.358;-1.486;2023-03-02T13:37:02;2.92;;;2.05;;
54561;SDS011;40456;53.358;-1.486;2023-03-02T13:40:02;2.00;;;1.90;;
54561;SDS011;40456;53.358;-1.486;2023-03-02T13:42:34;2.75;;;1.70;;
54561;SDS011;40456;53.358;-1.486;2023-03-02T13:47:52;5.90;;;1.90;;
54561;SDS011;40456;53.358;-1.486;2023-03-02T13:50:19;1.88;;;1.55;;
54561;SDS011;40456;53.358;-1.486;2023-03-02T13:52:49;2.92;;;1.42;;
54561;SDS011;40456;53.358;-1.486;2023-03-02T13:55:16;2.92;;;1.35;;
54561;SDS011;40456;53.358;-1.486;2023-03-02T13:57:42;7.68;;;1.50;;
54561;SDS011;40456;53.358;-1.486;2023-03-02T14:00:13;2.15;;;1.40;;
54561;SDS011;40456;53.358;-1.486;2023-03-02T14:02:41;2.05;;;1.38;;
54561;SDS011;40456;53.358;-1.486;2023-03-02T14:05:08;2.05;;;1.70;;
54561;SDS011;40456;53.358;-1.486;2023-03-02T14:07:43;3.15;;;1.85;;
54561;SDS011;40456;53.358;-1.486;2023-03-02T14:10:10;2.63;;;1.60;;
54561;SDS011;40456;53.358;-1.486;2023-03-02T14:12:37;1.92;;;1.25;;
54561;SDS011;40456;53.358;-1.486;2023-03-02T14:15:05;2.75;;;1.50;;
54561;SDS011;40456;53.358;-1.486;2023-03-02T14:17:31;2.33;;;1.55;;
54561;SDS011;40456;53.358;-1.486;2023-03-02T14:19:56;4.63;;;2.38;;
54561;SDS011;40456;53.358;-1.486;2023-03-02T14:22:22;2.45;;;1.55;;
54561;SDS011;40456;53.358;-1.486;2023-03-02T14:24:49;2.88;;;1.73;;
54561;SDS011;40456;53.358;-1.486;2023-03-02T14:27:15;5.05;;;1.42;;
54561;SDS011;40456;53.358;-1.486;2023-03-02T14:29:42;3.85;;;1.73;;
54561;SDS011;40456;53.358;-1.486;2023-03-02T14:32:09;3.92;;;1.33;;
54561;SDS011;40456;53.358;-1.486;2023-03-02T14:34:36;6.38;;;1.60;;
54561;SDS011;40456;53.358;-1.486;2023-03-02T14:37:03;2.42;;;1.20;;
54561;SDS011;40456;53.358;-1.486;2023-03-02T14:39:34;4.47;;;1.80;;
54561;SDS011;40456;53.358;-1.486;2023-03-02T14:42:01;2.78;;;1.70;;
54561;SDS011;40456;53.358;-1.486;2023-03-02T14:44:27;2.22;;;1.42;;
54561;SDS011;40456;53.358;-1.486;2023-03-02T14:46:52;3.85;;;1.70;;
54561;SDS011;40456;53.358;-1.486;2023-03-02T14:49:18;2.22;;;1.42;;
54561;SDS011;40456;53.358;-1.486;2023-03-02T14:51:46;1.48;;;1.30;;
54561;SDS011;40456;53.358;-1.486;2023-03-02T14:54:19;4.30;;;1.23;;
54561;SDS011;40456;53.358;-1.486;2023-03-02T14:56:44;1.23;;;1.00;;
54561;SDS011;40456;53.358;-1.486;2023-03-02T14:59:13;3.50;;;1.50;;
54561;SDS011;40456;53.358;-1.486;2023-03-02T15:01:39;2.15;;;1.30;;
54561;SDS011;40456;53.358;-1.486;2023-03-02T15:04:05;1.52;;;1.20;;
54561;SDS011;40456;53.358;-1.486;2023-03-02T15:06:31;1.75;;;1.35;;
54561;SDS011;40456;53.358;-1.486;2023-03-02T15:09:00;1.95;;;1.45;;
54561;SDS011;40456;53.358;-1.486;2023-03-02T15:11:26;2.35;;;1.60;;
54561;SDS011;40456;53.358;-1.486;2023-03-02T15:13:52;1.50;;;1.23;;
54561;SDS011;40456;53.358;-1.486;2023-03-02T15:16:18;2.60;;;1.50;;
54561;SDS011;40456;53.358;-1.486;2023-03-02T15:18:43;1.73;;;1.30;;
54561;SDS011;40456;53.358;-1.486;2023-03-02T15:21:19;1.95;;;1.20;;
54561;SDS011;40456;53.358;-1.486;2023-03-02T15:23:46;2.55;;;1.02;;
54561;SDS011;40456;53.358;-1.486;2023-03-02T15:26:12;2.03;;;1.00;;
54561;SDS011;40456;53.358;-1.486;2023-03-02T15:28:38;2.03;;;1.25;;
54561;SDS011;40456;53.358;-1.486;2023-03-02T15:31:13;2.00;;;1.38;;
54561;SDS011;40456;53.358;-1.486;2023-03-02T15:33:40;1.73;;;1.13;;
54561;SDS011;40456;53.358;-1.486;2023-03-02T15:36:07;0.95;;;0.90;;
54561;SDS011;40456;53.358;-1.486;2023-03-02T15:38:33;2.40;;;1.20;;
54561;SDS011;40456;53.358;-1.486;2023-03-02T15:41:07;1.63;;;1.10;;
54561;SDS011;40456;53.358;-1.486;2023-03-02T15:43:35;4.20;;;1.60;;
54561;SDS011;40456;53.358;-1.486;2023-03-02T15:46:00;2.70;;;1.58;;
54561;SDS011;40456;53.358;-1.486;2023-03-02T15:48:26;1.15;;;1.08;;
54561;SDS011;40456;53.358;-1.486;2023-03-02T15:50:59;3.30;;;1.38;;